Decoded Metar for KRBD (DALLAS/REDBIRD in TX, USA) (IATA:RBD) | Meteo·Mobile Aviation Weather
aviador You're here:

KRBD Decoded Metar

DALLAS/REDBIRD in TX, USA
Report Time2020-01-27 01:53:00
UTC Time2020-01-27 02:10:23
Flight Rules vfr VFR
WindCalm
Visibility9999 m
Phenomena:N/A
Clouds:N/A
Expected CloudBase > 1,200 ft AGL from Temp-Dew spread
CeilingNone
Temp12°C (ISA -2)
Dew Point09°C (82% RH)
AAT11.8°C
QNH1016 hPa
Density Alt522 ft
Elevation666 ft
Report Wrong Elevation
Raw Report
KRBD 270153Z 00000KT 10SM CLR 12/09 A3000 RMK AO2 SLP155
T01220089=

Extra information for KRBD:More info

Metar Taf Metar & Taf Last 4 Metars F.Rules Stats Wind Profile Meteogram Temp Stats Airport Information Weather charts Add Link Nearby VenuesMetar ALERT Operation Metar Decoded Social comments

AIRNAV info for KRBD